sensor_id;sensor_type;location;lat;lon;timestamp;pressure;altitude;pressure_sealevel;temperature;humidity
74427;BME280;62859;53.906;27.430;2023-03-04T00:04:09;995.6;;;4.4;58.5
74427;BME280;62859;53.906;27.430;2023-03-04T00:08:33;995.4;;;4.4;58.6
74427;BME280;62859;53.906;27.430;2023-03-04T00:13:37;995.4;;;4.4;58.5
74427;BME280;62859;53.906;27.430;2023-03-04T00:19:09;995.2;;;4.4;58.6
74427;BME280;62859;53.906;27.430;2023-03-04T00:23:59;995.1;;;4.4;58.8
74427;BME280;62859;53.906;27.430;2023-03-04T00:29:09;995;;;4.4;59.1
74427;BME280;62859;53.906;27.430;2023-03-04T00:33:37;994.8;;;4.4;59.6
74427;BME280;62859;53.906;27.430;2023-03-04T00:38:25;994.7;;;4.3;59.7
74427;BME280;62859;53.906;27.430;2023-03-04T00:44:09;994.6;;;4.2;59.9
74427;BME280;62859;53.906;27.430;2023-03-04T00:48:27;994.5;;;4.2;60.3
74427;BME280;62859;53.906;27.430;2023-03-04T00:54:09;994.3;;;4.1;60.3
74427;BME280;62859;53.906;27.430;2023-03-04T00:58:43;994.3;;;4.1;60.5
74427;BME280;62859;53.906;27.430;2023-03-04T01:03:37;994.1;;;4;60.7
74427;BME280;62859;53.906;27.430;2023-03-04T01:09:07;993.9;;;3.9;61.3
74427;BME280;62859;53.906;27.430;2023-03-04T01:13:45;993.9;;;3.9;61.7
74427;BME280;62859;53.906;27.430;2023-03-04T01:19:09;993.7;;;3.8;62
74427;BME280;62859;53.906;27.430;2023-03-04T01:23:45;993.7;;;3.8;62.1
74427;BME280;62859;53.906;27.430;2023-03-04T01:28:25;993.7;;;3.7;62.4
74427;BME280;62859;53.906;27.430;2023-03-04T01:34:09;993.6;;;3.7;62.5
74427;BME280;62859;53.906;27.430;2023-03-04T01:38:59;993.6;;;3.7;62.9
74427;BME280;62859;53.906;27.430;2023-03-04T01:44:09;993.5;;;3.7;63.1
74427;BME280;62859;53.906;27.430;2023-03-04T01:48:45;993.5;;;3.7;63
74427;BME280;62859;53.906;27.430;2023-03-04T01:53:26;993.4;;;3.6;63.2
74427;BME280;62859;53.906;27.430;2023-03-04T01:59:08;993.3;;;3.6;63.2
74427;BME280;62859;53.906;27.430;2023-03-04T02:03:59;993.3;;;3.5;63.2
74427;BME280;62859;53.906;27.430;2023-03-04T02:09:07;993.3;;;3.5;63.3
74427;BME280;62859;53.906;27.430;2023-03-04T02:13:43;993.2;;;3.4;63.1
74427;BME280;62859;53.906;27.430;2023-03-04T02:18:35;993.1;;;3.4;62.9
74427;BME280;62859;53.906;27.430;2023-03-04T02:24:11;992.9;;;3.4;62.5
74427;BME280;62859;53.906;27.430;2023-03-04T02:29:09;993;;;3.3;62.4
74427;BME280;62859;53.906;27.430;2023-03-04T02:34:00;992.8;;;3.3;62.3
74427;BME280;62859;53.906;27.430;2023-03-04T02:38:31;992.7;;;3.4;62.4
74427;BME280;62859;53.906;27.430;2023-03-04T02:43:35;992.7;;;3.4;62.4
74427;BME280;62859;53.906;27.430;2023-03-04T02:48:45;992.6;;;3.4;62
74427;BME280;62859;53.906;27.430;2023-03-04T02:54:13;992.4;;;3.4;61.6
74427;BME280;62859;53.906;27.430;2023-03-04T02:58:59;992.4;;;3.4;61.4
74427;BME280;62859;53.906;27.430;2023-03-04T03:03:45;992.3;;;3.4;61.3
74427;BME280;62859;53.906;27.430;2023-03-04T03:08:35;992.2;;;3.4;61.3
74427;BME280;62859;53.906;27.430;2023-03-04T03:13:59;992.1;;;3.3;61.5
74427;BME280;62859;53.906;27.430;2023-03-04T03:19:07;991.9;;;3.3;61.6
74427;BME280;62859;53.906;27.430;2023-03-04T03:23:59;991.8;;;3.3;61.7
74427;BME280;62859;53.906;27.430;2023-03-04T03:28:43;991.8;;;3.2;61.7
74427;BME280;62859;53.906;27.430;2023-03-04T03:33:25;991.6;;;3.1;61.6
74427;BME280;62859;53.906;27.430;2023-03-04T03:38:43;991.5;;;3.1;61.7
74427;BME280;62859;53.906;27.430;2023-03-04T03:44:07;991.4;;;3.1;61.6
74427;BME280;62859;53.906;27.430;2023-03-04T03:48:45;991.2;;;3;61.2
74427;BME280;62859;53.906;27.430;2023-03-04T03:53:33;991.1;;;2.9;61.4
74427;BME280;62859;53.906;27.430;2023-03-04T03:58:37;990.9;;;3;61.3
74427;BME280;62859;53.906;27.430;2023-03-04T04:03:25;990.9;;;3;61.1
74427;BME280;62859;53.906;27.430;2023-03-04T04:09:09;990.9;;;3;61
74427;BME280;62859;53.906;27.430;2023-03-04T04:14:10;990.8;;;3;60.9
74427;BME280;62859;53.906;27.430;2023-03-04T04:18:25;990.7;;;3;60.8
74427;BME280;62859;53.906;27.430;2023-03-04T04:23:35;990.6;;;3.1;60.7
74427;BME280;62859;53.906;27.430;2023-03-04T04:28:45;990.6;;;3.1;60.4
74427;BME280;62859;53.906;27.430;2023-03-04T04:34:07;990.4;;;3.1;60.5
74427;BME280;62859;53.906;27.430;2023-03-04T04:38:59;990.3;;;3.1;60.7
74427;BME280;62859;53.906;27.430;2023-03-04T04:43:25;990.2;;;3;60.6
74427;BME280;62859;53.906;27.430;2023-03-04T04:48:37;990.1;;;3.1;60.6
74427;BME280;62859;53.906;27.430;2023-03-04T04:53:49;990;;;3.1;60.8
74427;BME280;62859;53.906;27.430;2023-03-04T04:58:57;990;;;3.1;60.7
74427;BME280;62859;53.906;27.430;2023-03-04T05:03:59;989.8;;;3.1;60.7
74427;BME280;62859;53.906;27.430;2023-03-04T05:08:43;989.8;;;3.1;60.4
74427;BME280;62859;53.906;27.430;2023-03-04T05:13:25;989.7;;;3.1;60.8
74427;BME280;62859;53.906;27.430;2023-03-04T05:18:45;989.7;;;3.2;60.8
74427;BME280;62859;53.906;27.430;2023-03-04T05:24:09;989.8;;;3.2;60.4
74427;BME280;62859;53.906;27.430;2023-03-04T05:29:09;989.7;;;3.1;60.7
74427;BME280;62859;53.906;27.430;2023-03-04T05:33:43;989.5;;;3.1;60.9
74427;BME280;62859;53.906;27.430;2023-03-04T05:38:25;989.8;;;3.1;61
74427;BME280;62859;53.906;27.430;2023-03-04T05:43:41;989.7;;;3.1;61.2
74427;BME280;62859;53.906;27.430;2023-03-04T05:48:55;989.6;;;3.1;60.8
74427;BME280;62859;53.906;27.430;2023-03-04T05:53:49;989.5;;;3.2;60.6
74427;BME280;62859;53.906;27.430;2023-03-04T05:58:45;989.4;;;3.2;60.5
74427;BME280;62859;53.906;27.430;2023-03-04T06:03:25;989.3;;;3.2;60.6
74427;BME280;62859;53.906;27.430;2023-03-04T06:08:33;989.4;;;3.2;60.3
74427;BME280;62859;53.906;27.430;2023-03-04T06:14:09;989.5;;;3.2;60.4
74427;BME280;62859;53.906;27.430;2023-03-04T06:18:57;989.5;;;3.2;60.4
74427;BME280;62859;53.906;27.430;2023-03-04T06:23:35;989.5;;;3.3;60.7
74427;BME280;62859;53.906;27.430;2023-03-04T06:28:35;989.3;;;3.4;60.7
74427;BME280;62859;53.906;27.430;2023-03-04T06:33:45;989.2;;;3.4;60.6
74427;BME280;62859;53.906;27.430;2023-03-04T06:39:01;989.2;;;3.4;60.6
74427;BME280;62859;53.906;27.430;2023-03-04T06:44:01;989.2;;;3.5;60.7
74427;BME280;62859;53.906;27.430;2023-03-04T06:49:11;989.2;;;3.5;60.6
74427;BME280;62859;53.906;27.430;2023-03-04T06:53:25;989.2;;;3.5;60.4
74427;BME280;62859;53.906;27.430;2023-03-04T06:58:43;989.1;;;3.6;60.1
74427;BME280;62859;53.906;27.430;2023-03-04T07:04:11;989;;;3.7;60.3
74427;BME280;62859;53.906;27.430;2023-03-04T07:08:51;989;;;3.7;60.3
74427;BME280;62859;53.906;27.430;2023-03-04T07:14:09;989;;;3.7;60.6
74427;BME280;62859;53.906;27.430;2023-03-04T07:18:37;989.1;;;3.6;61.5
74427;BME280;62859;53.906;27.430;2023-03-04T07:23:25;989.1;;;3.6;62.9
74427;BME280;62859;53.906;27.430;2023-03-04T07:29:11;989;;;3.6;63.1
74427;BME280;62859;53.906;27.430;2023-03-04T07:34:02;989;;;3.6;62.9
74427;BME280;62859;53.906;27.430;2023-03-04T07:39:07;988.9;;;3.6;62.8
74427;BME280;62859;53.906;27.430;2023-03-04T07:43:35;988.9;;;3.6;63.8
74427;BME280;62859;53.906;27.430;2023-03-04T07:48:45;988.9;;;3.6;64
74427;BME280;62859;53.906;27.430;2023-03-04T07:54:11;988.9;;;3.7;64.3
74427;BME280;62859;53.906;27.430;2023-03-04T07:59:01;989;;;3.7;63.9
74427;BME280;62859;53.906;27.430;2023-03-04T08:04:11;989.1;;;3.7;62.9
74427;BME280;62859;53.906;27.430;2023-03-04T08:09:04;989.1;;;3.5;63.2
74427;BME280;62859;53.906;27.430;2023-03-04T08:14:01;989.3;;;3.3;63.4
74427;BME280;62859;53.906;27.430;2023-03-04T08:19:11;989.3;;;3.2;62.8
74427;BME280;62859;53.906;27.430;2023-03-04T08:23:51;989.3;;;3.2;61.2
74427;BME280;62859;53.906;27.430;2023-03-04T08:29:12;989.4;;;3.3;60.6
74427;BME280;62859;53.906;27.430;2023-03-04T08:33:33;989.3;;;3.5;59.3
74427;BME280;62859;53.906;27.430;2023-03-04T08:38:33;989.2;;;3.9;57.1
74427;BME280;62859;53.906;27.430;2023-03-04T08:44:09;989.2;;;4.2;55.4
74427;BME280;62859;53.906;27.430;2023-03-04T08:48:59;989.2;;;4.3;54.1
74427;BME280;62859;53.906;27.430;2023-03-04T08:54:11;989.1;;;5.6;51.1
74427;BME280;62859;53.906;27.430;2023-03-04T08:58:55;989.1;;;7.3;47
74427;BME280;62859;53.906;27.430;2023-03-04T09:03:45;989.1;;;7.9;46.1
74427;BME280;62859;53.906;27.430;2023-03-04T09:09:01;989.1;;;8.9;44.3
74427;BME280;62859;53.906;27.430;2023-03-04T09:13:59;989;;;9.5;43.5
74427;BME280;62859;53.906;27.430;2023-03-04T09:19:11;989;;;9.5;41.9
74427;BME280;62859;53.906;27.430;2023-03-04T09:23:25;989;;;9.4;42.2
74427;BME280;62859;53.906;27.430;2023-03-04T09:28:43;989;;;9.1;42.2
74427;BME280;62859;53.906;27.430;2023-03-04T09:34:07;989;;;9.1;42.3
74427;BME280;62859;53.906;27.430;2023-03-04T09:38:59;989;;;9;41.3
74427;BME280;62859;53.906;27.430;2023-03-04T09:44:12;989;;;8.9;41.2
74427;BME280;62859;53.906;27.430;2023-03-04T09:48:26;988.9;;;9.1;41.4
74427;BME280;62859;53.906;27.430;2023-03-04T09:53:38;988.9;;;8.8;42.4
74427;BME280;62859;53.906;27.430;2023-03-04T09:59:12;988.9;;;8.6;44.4
74427;BME280;62859;53.906;27.430;2023-03-04T10:03:57;988.7;;;9.1;44.5
74427;BME280;62859;53.906;27.430;2023-03-04T10:09:09;988.7;;;9.6;44.3
74427;BME280;62859;53.906;27.430;2023-03-04T10:13:34;988.7;;;10.2;41.8
74427;BME280;62859;53.906;27.430;2023-03-04T10:18:35;988.7;;;10.2;40.6
74427;BME280;62859;53.906;27.430;2023-03-04T10:24:08;988.7;;;9.8;38.7
74427;BME280;62859;53.906;27.430;2023-03-04T10:28:57;988.5;;;9.3;40.4
74427;BME280;62859;53.906;27.430;2023-03-04T10:34:08;988.5;;;9.1;40.2
74427;BME280;62859;53.906;27.430;2023-03-04T10:38:25;988.4;;;8.7;38.7
74427;BME280;62859;53.906;27.430;2023-03-04T10:44:11;988.4;;;8.6;39.9
74427;BME280;62859;53.906;27.430;2023-03-04T10:48:57;988.3;;;9.2;40
74427;BME280;62859;53.906;27.430;2023-03-04T10:53:59;988.2;;;10.1;38.6
74427;BME280;62859;53.906;27.430;2023-03-04T10:58:56;988.2;;;10.6;38.2
74427;BME280;62859;53.906;27.430;2023-03-04T11:03:37;988.3;;;10.3;37.7
74427;BME280;62859;53.906;27.430;2023-03-04T11:09:19;988.4;;;9.7;38.5
74427;BME280;62859;53.906;27.430;2023-03-04T11:13:52;988.4;;;9.6;38.9
74427;BME280;62859;53.906;27.430;2023-03-04T11:18:49;988.3;;;10.1;37.3
74427;BME280;62859;53.906;27.430;2023-03-04T11:23:40;988.3;;;10.9;36.1
74427;BME280;62859;53.906;27.430;2023-03-04T11:29:12;988.3;;;11.8;35.3
74427;BME280;62859;53.906;27.430;2023-03-04T11:34:13;988.2;;;12.4;33.9
74427;BME280;62859;53.906;27.430;2023-03-04T11:38:26;988.2;;;12.3;32.8
74427;BME280;62859;53.906;27.430;2023-03-04T11:43:47;988.3;;;11.8;33.8
74427;BME280;62859;53.906;27.430;2023-03-04T11:49:00;988.2;;;11.3;33.4
74427;BME280;62859;53.906;27.430;2023-03-04T11:53:39;988.1;;;10.5;34
74427;BME280;62859;53.906;27.430;2023-03-04T11:59:16;988.2;;;9.8;35.5
74427;BME280;62859;53.906;27.430;2023-03-04T12:03:32;988.2;;;9.1;37.7
74427;BME280;62859;53.906;27.430;2023-03-04T12:08:52;988;;;9.4;38.4
74427;BME280;62859;53.906;27.430;2023-03-04T12:14:03;988.5;;;9.8;38
74427;BME280;62859;53.906;27.430;2023-03-04T12:19:04;988.4;;;9.1;39.4
74427;BME280;62859;53.906;27.430;2023-03-04T12:24:14;988.3;;;8.2;39.8
74427;BME280;62859;53.906;27.430;2023-03-04T12:28:30;988.1;;;7.6;41.4
74427;BME280;62859;53.906;27.430;2023-03-04T12:33:40;988;;;8;41.1
74427;BME280;62859;53.906;27.430;2023-03-04T12:38:58;988;;;8.2;39.7
74427;BME280;62859;53.906;27.430;2023-03-04T12:43:28;988.1;;;7.8;40.1
74427;BME280;62859;53.906;27.430;2023-03-04T12:49:13;988.1;;;7.4;40.1
74427;BME280;62859;53.906;27.430;2023-03-04T12:53:26;988.2;;;7;40.7
74427;BME280;62859;53.906;27.430;2023-03-04T12:58:47;988.4;;;6.6;42.1
74427;BME280;62859;53.906;27.430;2023-03-04T13:03:53;988.8;;;6.1;46.4
74427;BME280;62859;53.906;27.430;2023-03-04T13:08:28;989;;;5.3;49.4
74427;BME280;62859;53.906;27.430;2023-03-04T13:14:21;988.9;;;4.4;50.9
74427;BME280;62859;53.906;27.430;2023-03-04T13:18:29;988.7;;;4.1;51.5
74427;BME280;62859;53.906;27.430;2023-03-04T13:23:33;988.5;;;4.4;52
74427;BME280;62859;53.906;27.430;2023-03-04T13:28:45;988.4;;;4.4;51.1
74427;BME280;62859;53.906;27.430;2023-03-04T13:33:43;988.3;;;4.3;48.4
74427;BME280;62859;53.906;27.430;2023-03-04T13:39:21;988.4;;;4.3;48.8
74427;BME280;62859;53.906;27.430;2023-03-04T13:43:27;988.3;;;4.3;48.4
74427;BME280;62859;53.906;27.430;2023-03-04T13:48:57;988.4;;;4.3;48.2
74427;BME280;62859;53.906;27.430;2023-03-04T13:54:05;988.3;;;4.4;48.1
74427;BME280;62859;53.906;27.430;2023-03-04T13:58:45;988.4;;;4.4;47.6
74427;BME280;62859;53.906;27.430;2023-03-04T14:04:09;988.5;;;4.5;46.9
74427;BME280;62859;53.906;27.430;2023-03-04T14:08:25;988.8;;;4.2;49.8
74427;BME280;62859;53.906;27.430;2023-03-04T14:13:25;988.6;;;3.7;51.1
74427;BME280;62859;53.906;27.430;2023-03-04T14:18:45;988.5;;;3.5;51.6
74427;BME280;62859;53.906;27.430;2023-03-04T14:23:34;988.5;;;3.5;51.1
74427;BME280;62859;53.906;27.430;2023-03-04T14:29:26;988.5;;;3.5;51.4
74427;BME280;62859;53.906;27.430;2023-03-04T14:33:35;988.5;;;3.3;50.9
74427;BME280;62859;53.906;27.430;2023-03-04T14:38:49;988.5;;;3.3;51
74427;BME280;62859;53.906;27.430;2023-03-04T14:44:11;988.4;;;3.3;50.7
74427;BME280;62859;53.906;27.430;2023-03-04T14:48:33;988.4;;;3.3;50.3
74427;BME280;62859;53.906;27.430;2023-03-04T14:53:57;988.3;;;3.3;51.5
74427;BME280;62859;53.906;27.430;2023-03-04T14:59:05;988.4;;;3.3;51.1
74427;BME280;62859;53.906;27.430;2023-03-04T15:04:00;988.8;;;3.3;51
74427;BME280;62859;53.906;27.430;2023-03-04T15:08:44;988.9;;;3;51.8
74427;BME280;62859;53.906;27.430;2023-03-04T15:13:46;988.8;;;2.7;52.7
74427;BME280;62859;53.906;27.430;2023-03-04T15:18:59;988.8;;;2.3;52.8
74427;BME280;62859;53.906;27.430;2023-03-04T15:23:26;988.5;;;2;52.8
74427;BME280;62859;53.906;27.430;2023-03-04T15:28:47;988.3;;;2;52.6
74427;BME280;62859;53.906;27.430;2023-03-04T15:34:10;988.3;;;1.9;52.3
74427;BME280;62859;53.906;27.430;2023-03-04T15:38:35;988.3;;;1.9;52.4
74427;BME280;62859;53.906;27.430;2023-03-04T15:43:57;988.5;;;1.9;51.9
74427;BME280;62859;53.906;27.430;2023-03-04T15:48:27;988.6;;;1.9;51.6
74427;BME280;62859;53.906;27.430;2023-03-04T15:53:48;988.5;;;1.9;51
74427;BME280;62859;53.906;27.430;2023-03-04T15:58:54;988.5;;;2;51
74427;BME280;62859;53.906;27.430;2023-03-04T16:03:25;988.4;;;2.1;49.7
74427;BME280;62859;53.906;27.430;2023-03-04T16:08:57;988.4;;;2;49.5
74427;BME280;62859;53.906;27.430;2023-03-04T16:13:33;988.3;;;2;48.8
74427;BME280;62859;53.906;27.430;2023-03-04T16:18:25;988.3;;;1.9;48.9
74427;BME280;62859;53.906;27.430;2023-03-04T16:24:11;988.4;;;1.9;49
74427;BME280;62859;53.906;27.430;2023-03-04T16:28:47;988.4;;;1.9;47.9
74427;BME280;62859;53.906;27.430;2023-03-04T16:33:55;988.3;;;2;47
74427;BME280;62859;53.906;27.430;2023-03-04T16:38:43;988.4;;;1.9;45.7
74427;BME280;62859;53.906;27.430;2023-03-04T16:43:45;988.5;;;1.9;45.1
74427;BME280;62859;53.906;27.430;2023-03-04T16:49:07;988.5;;;1.8;45.3
74427;BME280;62859;53.906;27.430;2023-03-04T16:53:48;988.5;;;1.8;44.7
74427;BME280;62859;53.906;27.430;2023-03-04T16:58:57;988.5;;;1.7;45.1
74427;BME280;62859;53.906;27.430;2023-03-04T17:03:25;988.4;;;1.7;44.9
74427;BME280;62859;53.906;27.430;2023-03-04T17:08:25;988.4;;;1.7;45.2
74427;BME280;62859;53.906;27.430;2023-03-04T17:14:07;988.4;;;1.7;45.2
74427;BME280;62859;53.906;27.430;2023-03-04T17:18:25;988.5;;;1.6;45.5
74427;BME280;62859;53.906;27.430;2023-03-04T17:23:57;988.5;;;1.6;45.6
74427;BME280;62859;53.906;27.430;2023-03-04T17:28:33;988.5;;;1.6;45.7
74427;BME280;62859;53.906;27.430;2023-03-04T17:33:47;988.5;;;1.5;45.9
74427;BME280;62859;53.906;27.430;2023-03-04T17:39:07;988.4;;;1.5;46.5
74427;BME280;62859;53.906;27.430;2023-03-04T17:43:46;988.4;;;1.5;47.1
74427;BME280;62859;53.906;27.430;2023-03-04T17:48:58;988.4;;;1.5;47.5
74427;BME280;62859;53.906;27.430;2023-03-04T17:53:35;988.3;;;1.5;48
74427;BME280;62859;53.906;27.430;2023-03-04T17:58:26;988.3;;;1.4;48.3
74427;BME280;62859;53.906;27.430;2023-03-04T18:04:07;988.2;;;1.2;49.4
74427;BME280;62859;53.906;27.430;2023-03-04T18:08:47;988.2;;;1.1;49.9
74427;BME280;62859;53.906;27.430;2023-03-04T18:13:47;988.1;;;1.2;49.6
74427;BME280;62859;53.906;27.430;2023-03-04T18:18:33;988.1;;;1.2;49.3
74427;BME280;62859;53.906;27.430;2023-03-04T18:23:47;988.2;;;1.2;49.5
74427;BME280;62859;53.906;27.430;2023-03-04T18:29:07;988.2;;;1.2;50
74427;BME280;62859;53.906;27.430;2023-03-04T18:33:37;988.2;;;1.1;51.3
74427;BME280;62859;53.906;27.430;2023-03-04T18:38:57;988.3;;;1;52.3
74427;BME280;62859;53.906;27.430;2023-03-04T18:43:35;988.2;;;1;52.9
74427;BME280;62859;53.906;27.430;2023-03-04T18:48:48;988.2;;;1;52.9
74427;BME280;62859;53.906;27.430;2023-03-04T18:53:57;988.2;;;1;52.9
74427;BME280;62859;53.906;27.430;2023-03-04T18:58:37;988.1;;;1;53.2
74427;BME280;62859;53.906;27.430;2023-03-04T19:03:57;988.2;;;1;53.4
74427;BME280;62859;53.906;27.430;2023-03-04T19:08:33;988.1;;;0.8;53.7
74427;BME280;62859;53.906;27.430;2023-03-04T19:13:48;988.1;;;0.8;53.9
74427;BME280;62859;53.906;27.430;2023-03-04T19:19:07;988.2;;;0.7;53.3
74427;BME280;62859;53.906;27.430;2023-03-04T19:23:47;988.2;;;0.7;53.6
74427;BME280;62859;53.906;27.430;2023-03-04T19:28:57;988.1;;;0.7;54.1
74427;BME280;62859;53.906;27.430;2023-03-04T19:33:25;988.3;;;0.7;54.8
74427;BME280;62859;53.906;27.430;2023-03-04T19:38:25;988.3;;;0.6;55.1
74427;BME280;62859;53.906;27.430;2023-03-04T19:44:07;988.3;;;0.7;55.3
74427;BME280;62859;53.906;27.430;2023-03-04T19:48:33;988.3;;;0.7;55.2
74427;BME280;62859;53.906;27.430;2023-03-04T19:53:58;988.4;;;0.6;56.1
74427;BME280;62859;53.906;27.430;2023-03-04T19:58:43;988.4;;;0.7;56.3
74427;BME280;62859;53.906;27.430;2023-03-04T20:03:48;988.4;;;0.8;56.5
74427;BME280;62859;53.906;27.430;2023-03-04T20:09:08;988.3;;;0.9;56.6
74427;BME280;62859;53.906;27.430;2023-03-04T20:13:37;988.4;;;0.9;56.7
74427;BME280;62859;53.906;27.430;2023-03-04T20:19:07;988.2;;;0.8;57.2
74427;BME280;62859;53.906;27.430;2023-03-04T20:23:25;988.3;;;0.9;57.1
74427;BME280;62859;53.906;27.430;2023-03-04T20:28:47;988.2;;;0.8;57.2
74427;BME280;62859;53.906;27.430;2023-03-04T20:33:52;988.2;;;0.9;57.1
74427;BME280;62859;53.906;27.430;2023-03-04T20:38:47;988.2;;;0.9;57.4
74427;BME280;62859;53.906;27.430;2023-03-04T20:43:55;988.3;;;0.9;57.6
74427;BME280;62859;53.906;27.430;2023-03-04T20:48:41;988.3;;;1;57.9
74427;BME280;62859;53.906;27.430;2023-03-04T20:54:08;988.4;;;0.9;58.5
74427;BME280;62859;53.906;27.430;2023-03-04T20:59:10;988.3;;;1;58.3
74427;BME280;62859;53.906;27.430;2023-03-04T21:03:25;988.4;;;1;58
74427;BME280;62859;53.906;27.430;2023-03-04T21:08:59;988.4;;;1;58.4
74427;BME280;62859;53.906;27.430;2023-03-04T21:13:33;988.5;;;1;58.6
74427;BME280;62859;53.906;27.430;2023-03-04T21:18:49;988.5;;;1;58.4
74427;BME280;62859;53.906;27.430;2023-03-04T21:24:09;988.5;;;1;58.3
74427;BME280;62859;53.906;27.430;2023-03-04T21:28:25;988.5;;;1;58.8
74427;BME280;62859;53.906;27.430;2023-03-04T21:33:57;988.5;;;1;59.1
74427;BME280;62859;53.906;27.430;2023-03-04T21:38:35;988.5;;;1;59.6
74427;BME280;62859;53.906;27.430;2023-03-04T21:43:50;988.6;;;1;59.8
74427;BME280;62859;53.906;27.430;2023-03-04T21:49:11;988.7;;;1;60
74427;BME280;62859;53.906;27.430;2023-03-04T21:53:25;988.8;;;1;60.3
74427;BME280;62859;53.906;27.430;2023-03-04T21:58:59;988.8;;;1;60.3
74427;BME280;62859;53.906;27.430;2023-03-04T22:03:25;988.8;;;1;60
74427;BME280;62859;53.906;27.430;2023-03-04T22:08:47;988.9;;;1.1;59.6
74427;BME280;62859;53.906;27.430;2023-03-04T22:14:11;988.9;;;1.1;59.1
74427;BME280;62859;53.906;27.430;2023-03-04T22:18:38;989;;;1.1;58.9
74427;BME280;62859;53.906;27.430;2023-03-04T22:23:57;989.1;;;1.2;58.6
74427;BME280;62859;53.906;27.430;2023-03-04T22:28:35;989;;;1.2;58.3
74427;BME280;62859;53.906;27.430;2023-03-04T22:33:57;989.1;;;1.2;58.1
74427;BME280;62859;53.906;27.430;2023-03-04T22:39:10;989.2;;;1.2;58.2
74427;BME280;62859;53.906;27.430;2023-03-04T22:43:25;989.2;;;1.3;58.3
74427;BME280;62859;53.906;27.430;2023-03-04T22:48:47;989.3;;;1.3;57.7
74427;BME280;62859;53.906;27.430;2023-03-04T22:53:57;989.4;;;1.4;57.8
74427;BME280;62859;53.906;27.430;2023-03-04T22:58:59;989.4;;;1.4;58.4
74427;BME280;62859;53.906;27.430;2023-03-04T23:04:02;989.6;;;1.4;58.6
74427;BME280;62859;53.906;27.430;2023-03-04T23:08:25;989.7;;;1.4;58.3
74427;BME280;62859;53.906;27.430;2023-03-04T23:13:59;989.7;;;1.4;58
74427;BME280;62859;53.906;27.430;2023-03-04T23:18:43;989.7;;;1.4;58
74427;BME280;62859;53.906;27.430;2023-03-04T23:23:59;989.8;;;1.4;58
74427;BME280;62859;53.906;27.430;2023-03-04T23:28:55;989.8;;;1.5;57.9
74427;BME280;62859;53.906;27.430;2023-03-04T23:33:35;989.9;;;1.5;57.3
74427;BME280;62859;53.906;27.430;2023-03-04T23:38:59;989.8;;;1.5;57.2
74427;BME280;62859;53.906;27.430;2023-03-04T23:43:33;989.9;;;1.5;57.2
74427;BME280;62859;53.906;27.430;2023-03-04T23:48:59;989.9;;;1.5;57.3
74427;BME280;62859;53.906;27.430;2023-03-04T23:54:09;990;;;1.5;57
74427;BME280;62859;53.906;27.430;2023-03-04T23:58:47;990;;;1.5;56.6
